Gassville, AR (72635)

9:09 PM CST on February 09, 2016 (GMT -0600)
APRSWXNET | | Change Station
CLOSE
Current Station
Personal Weather Station
Location: Gassville, AR
Elevation: 1115 ft
Nearby Weather Stations

Elev 1115 ft 36.26 °N, 92.49 °W | Updated 20 minutes ago

Clear
Clear
32 °F
Feels Like 27 °F
N
5
Wind Variable Wind from WNW
Gusts 10.0 mph

Today
High -- | Low -- °F
--% Chance of Precip.
Yesterday
High -- | Low -- °F
Precip. -- in
Pressure 30.19 in
Visibility 10.0 miles
Clouds Clear
Windchill 27 °F
Dew Point 9 °F
Humidity 37%
Rainfall in
Snow Depth Not available.
7:04 AM 5:44 PM
Waxing Crescent, 3% visible
METAR KBPK 100253Z AUTO 32008G15KT 10SM CLR M02/M15 A3016 RMK AO2 SLP222 T10171150 51012
Pressure 30.19 in
Visibility 10.0 miles
Clouds Clear
Windchill 27 °F
Dew Point 9 °F
Humidity 37%
Rainfall in
Snow Depth Not available.
7:04 AM 5:44 PM
Waxing Crescent, 3% visible
METAR KBPK 100253Z AUTO 32008G15KT 10SM CLR M02/M15 A3016 RMK AO2 SLP222 T10171150 51012

10-Day Weather Forecast

Almanac

Astronomy

Feb. 09, 2016 Rise Set
Actual Time
Civil Twilight
Nautical Twilight
Astronomical Twilight
Moon
Length of Visible Light
Length of Day
Tomorrow will be .
, % of the Moon is Illuminated

Today's Extremes

State Highs State Lows

Community

WunderPhotos

Upload Photos

1,891,787 photos uploaded!

WunderBlog® & News

Nearby

Air Quality

  Air Quality AQ Index Pollutant
Not available.

Snow Depth

Station Depth Elevation

Earthquake Activity

City Distance Mag. Time & Date
Minimum magnitude displayed is 2.5.

Coastal Water Temperatures

Place Temperature

Stations

Nearby Weather Stations

Station Location Temp. Windchill Dew Point Humidity Wind Precip. Elev Updated Type
                   

Watches & Warnings

There are currently no watches in effect.